Time;durP1;ratioP1;P1;durP2;ratioP2;P2;SDS_P1;SDS_P2;PMS_P1;PMS_P2;Temp;Humidity;BMP_temperature;BMP_pressure;BME280_temperature;BME280_humidity;BME280_pressure;Samples;Min_cycle;Max_cycle;Signal;HPM_P1;HPM_P2
2022/08/07 00:00:37;;;;;;;4.40;2.83;;;;;;;;;;4937612;29;20381;-75
2022/08/07 00:03:03;;;;;;;4.50;2.78;;;;;;;;;;4935716;29;20025;-75
2022/08/07 00:05:29;;;;;;;3.95;2.55;;;;;;;;;;4937212;29;20031;-75
2022/08/07 00:07:56;;;;;;;4.20;2.78;;;;;;;;;;4935627;29;20507;-76
2022/08/07 00:10:22;;;;;;;5.25;3.17;;;;;;;;;;4937512;29;20059;-75
2022/08/07 00:12:49;;;;;;;6.22;2.95;;;;;;;;;;4937425;29;20027;-75
2022/08/07 00:15:15;;;;;;;8.13;2.70;;;;;;;;;;4936804;29;20023;-75
2022/08/07 00:17:42;;;;;;;4.85;2.90;;;;;;;;;;4936769;29;20028;-75
2022/08/07 00:20:08;;;;;;;5.82;2.47;;;;;;;;;;4935309;29;20401;-74
2022/08/07 00:22:34;;;;;;;4.55;2.75;;;;;;;;;;4935404;29;20031;-74
2022/08/07 00:25:00;;;;;;;5.38;2.50;;;;;;;;;;4936720;29;20070;-76
2022/08/07 00:27:26;;;;;;;4.18;2.92;;;;;;;;;;4935307;29;20035;-74
2022/08/07 00:29:52;;;;;;;5.93;2.90;;;;;;;;;;4936419;29;20043;-75
2022/08/07 00:32:19;;;;;;;4.53;2.75;;;;;;;;;;4935177;29;20581;-75
2022/08/07 00:34:48;;;;;;;5.05;2.85;;;;;;;;;;4935211;29;20032;-75
2022/08/07 00:37:14;;;;;;;5.40;3.03;;;;;;;;;;4935479;29;20091;-75
2022/08/07 00:39:41;;;;;;;5.22;2.88;;;;;;;;;;4935101;29;20027;-75
2022/08/07 00:42:07;;;;;;;7.70;3.00;;;;;;;;;;4936462;29;20038;-75
2022/08/07 00:44:34;;;;;;;4.93;2.80;;;;;;;;;;4935062;29;20023;-75
2022/08/07 00:47:04;;;;;;;4.97;3.05;;;;;;;;;;4934957;29;20032;-75
2022/08/07 00:49:30;;;;;;;5.40;2.70;;;;;;;;;;4936844;29;20165;-74
2022/08/07 00:51:57;;;;;;;4.63;3.00;;;;;;;;;;4935038;29;20031;-74
2022/08/07 00:54:23;;;;;;;5.75;3.08;;;;;;;;;;4934999;29;20039;-74
2022/08/07 00:56:50;;;;;;;5.53;3.20;;;;;;;;;;4934935;29;20534;-74
2022/08/07 00:59:17;;;;;;;4.45;3.00;;;;;;;;;;4936283;29;20028;-74
2022/08/07 01:01:43;;;;;;;5.15;2.70;;;;;;;;;;4934651;29;20492;-73
2022/08/07 01:04:10;;;;;;;5.40;3.17;;;;;;;;;;4934918;29;20047;-74
2022/08/07 01:06:36;;;;;;;5.93;2.88;;;;;;;;;;4935454;29;20038;-75
2022/08/07 01:09:03;;;;;;;5.85;2.90;;;;;;;;;;4934395;29;20036;-74
2022/08/07 01:11:30;;;;;;;4.93;3.10;;;;;;;;;;4936575;29;20052;-75
2022/08/07 01:13:56;;;;;;;4.93;2.90;;;;;;;;;;4935912;29;20035;-74
2022/08/07 01:16:23;;;;;;;4.70;3.13;;;;;;;;;;4936109;29;20393;-74
2022/08/07 01:18:49;;;;;;;4.32;2.90;;;;;;;;;;4935974;29;20027;-75
2022/08/07 01:21:18;;;;;;;4.18;2.88;;;;;;;;;;4935975;29;20031;-75
2022/08/07 01:23:45;;;;;;;4.30;2.92;;;;;;;;;;4935479;29;20433;-75
2022/08/07 01:26:13;;;;;;;4.20;2.58;;;;;;;;;;4935735;29;20040;-75
2022/08/07 01:28:41;;;;;;;3.78;2.78;;;;;;;;;;4935887;29;20043;-75
2022/08/07 01:31:08;;;;;;;5.50;2.83;;;;;;;;;;4936391;29;20087;-75
2022/08/07 01:33:34;;;;;;;4.03;2.72;;;;;;;;;;4935917;29;20031;-75
2022/08/07 01:36:01;;;;;;;5.97;2.72;;;;;;;;;;4936183;29;20362;-74
2022/08/07 01:38:28;;;;;;;5.03;3.03;;;;;;;;;;4934346;29;20480;-75
2022/08/07 01:40:55;;;;;;;4.63;3.08;;;;;;;;;;4935945;29;20106;-75
2022/08/07 01:43:21;;;;;;;4.55;2.72;;;;;;;;;;4938168;29;20027;-75
2022/08/07 01:45:47;;;;;;;5.47;2.88;;;;;;;;;;4939980;29;20377;-74
2022/08/07 01:48:15;;;;;;;6.82;3.72;;;;;;;;;;4938455;29;20075;-74
2022/08/07 01:50:41;;;;;;;8.15;2.88;;;;;;;;;;4939983;29;20028;-75
2022/08/07 01:53:09;;;;;;;4.28;2.95;;;;;;;;;;4939395;29;20397;-75
2022/08/07 01:55:39;;;;;;;3.78;2.83;;;;;;;;;;4939929;29;20035;-75
2022/08/07 01:58:07;;;;;;;6.03;2.70;;;;;;;;;;4939329;29;20032;-74
2022/08/07 02:00:35;;;;;;;8.43;2.97;;;;;;;;;;4938047;29;20030;-75
2022/08/07 02:03:06;;;;;;;5.22;2.92;;;;;;;;;;4939197;29;20036;-74
2022/08/07 02:05:35;;;;;;;3.83;2.60;;;;;;;;;;4939679;29;20031;-74
2022/08/07 02:08:03;;;;;;;4.05;2.22;;;;;;;;;;4939060;29;20070;-74
2022/08/07 02:10:30;;;;;;;4.63;2.60;;;;;;;;;;4939127;29;20553;-75
2022/08/07 02:12:58;;;;;;;6.38;3.08;;;;;;;;;;4938996;29;20024;-75
2022/08/07 02:15:26;;;;;;;3.70;2.70;;;;;;;;;;4939015;29;20127;-75
2022/08/07 02:17:53;;;;;;;5.65;2.60;;;;;;;;;;4939522;29;20031;-74
2022/08/07 02:20:20;;;;;;;4.97;2.67;;;;;;;;;;4938982;29;20066;-74
2022/08/07 02:22:47;;;;;;;5.50;2.70;;;;;;;;;;4939457;29;20457;-74
2022/08/07 02:25:15;;;;;;;4.68;2.80;;;;;;;;;;4938709;29;20024;-74
2022/08/07 02:27:42;;;;;;;4.57;2.80;;;;;;;;;;4939240;29;20065;-75
2022/08/07 02:30:08;;;;;;;3.70;2.50;;;;;;;;;;4939334;29;20038;-74
2022/08/07 02:32:36;;;;;;;4.80;2.78;;;;;;;;;;4939270;29;20028;-75
2022/08/07 02:35:03;;;;;;;3.60;2.50;;;;;;;;;;4937410;29;20024;-74
2022/08/07 02:37:31;;;;;;;5.47;2.70;;;;;;;;;;4938676;29;20128;-74
2022/08/07 02:39:58;;;;;;;5.60;2.58;;;;;;;;;;4938571;29;20426;-74
2022/08/07 02:42:25;;;;;;;6.35;2.90;;;;;;;;;;4938608;29;20028;-75
2022/08/07 02:44:53;;;;;;;3.85;2.60;;;;;;;;;;4938530;29;20119;-75
2022/08/07 02:47:19;;;;;;;6.65;2.65;;;;;;;;;;4938461;29;20106;-74
2022/08/07 02:49:46;;;;;;;4.13;2.67;;;;;;;;;;4939172;29;20050;-73
2022/08/07 02:52:15;;;;;;;6.03;2.85;;;;;;;;;;4938057;29;20034;-74
2022/08/07 02:54:42;;;;;;;4.25;3.00;;;;;;;;;;4936998;29;20059;-75
2022/08/07 02:57:10;;;;;;;7.35;3.15;;;;;;;;;;4938267;29;20051;-74
2022/08/07 02:59:36;;;;;;;5.28;3.17;;;;;;;;;;4936889;29;20032;-74
2022/08/07 03:02:02;;;;;;;3.92;2.53;;;;;;;;;;4938183;29;20066;-75
2022/08/07 03:04:29;;;;;;;5.68;2.80;;;;;;;;;;4938637;29;20024;-75
2022/08/07 03:06:56;;;;;;;4.97;2.85;;;;;;;;;;4936747;29;20027;-75
2022/08/07 03:09:22;;;;;;;5.50;2.97;;;;;;;;;;4938042;29;20038;-74
2022/08/07 03:11:49;;;;;;;6.18;3.03;;;;;;;;;;4938010;29;20030;-74
2022/08/07 03:14:16;;;;;;;5.97;2.75;;;;;;;;;;4938575;29;20095;-74
2022/08/07 03:16:42;;;;;;;5.10;2.70;;;;;;;;;;4936636;29;20027;-75
2022/08/07 03:19:09;;;;;;;4.47;2.50;;;;;;;;;;4938432;29;20028;-75
2022/08/07 03:21:36;;;;;;;6.47;2.65;;;;;;;;;;4936426;29;20036;-75
2022/08/07 03:24:02;;;;;;;7.07;2.67;;;;;;;;;;4937738;29;20066;-74
2022/08/07 03:26:30;;;;;;;5.30;2.60;;;;;;;;;;4936214;29;20082;-75
2022/08/07 03:28:58;;;;;;;5.75;2.58;;;;;;;;;;4937684;29;20071;-75
2022/08/07 03:31:25;;;;;;;4.60;2.25;;;;;;;;;;4936359;29;20436;-74
2022/08/07 03:33:56;;;;;;;6.35;2.63;;;;;;;;;;4936327;29;20091;-74
2022/08/07 03:36:24;;;;;;;3.63;2.70;;;;;;;;;;4937536;29;20020;-74
2022/08/07 03:38:52;;;;;;;4.40;2.47;;;;;;;;;;4937523;29;20063;-75
2022/08/07 03:41:18;;;;;;;4.32;2.30;;;;;;;;;;4937487;29;20035;-75
2022/08/07 03:43:44;;;;;;;5.20;2.55;;;;;;;;;;4937473;29;20028;-75
2022/08/07 03:46:11;;;;;;;4.28;2.40;;;;;;;;;;4937891;29;20031;-74
2022/08/07 03:48:37;;;;;;;4.32;2.38;;;;;;;;;;4937059;29;20036;-75
2022/08/07 03:51:04;;;;;;;5.60;2.17;;;;;;;;;;4921046;29;20424;-75
2022/08/07 03:53:30;;;;;;;2.83;2.13;;;;;;;;;;4920156;29;20122;-77
2022/08/07 03:55:58;;;;;;;3.28;2.30;;;;;;;;;;4920145;29;20024;-75
2022/08/07 03:58:25;;;;;;;3.20;2.40;;;;;;;;;;4920160;29;20032;-76
2022/08/07 04:00:52;;;;;;;4.28;2.20;;;;;;;;;;4919964;29;20032;-76
2022/08/07 04:03:19;;;;;;;6.32;2.45;;;;;;;;;;4919361;29;20102;-76
2022/08/07 04:05:45;;;;;;;4.97;2.20;;;;;;;;;;4919925;29;20024;-75
2022/08/07 04:08:12;;;;;;;3.75;2.30;;;;;;;;;;4936754;29;20040;-75
2022/08/07 04:10:39;;;;;;;5.60;2.55;;;;;;;;;;4919980;29;20032;-75
2022/08/07 04:13:09;;;;;;;3.60;2.15;;;;;;;;;;4919860;29;20028;-75
2022/08/07 04:15:35;;;;;;;3.80;2.30;;;;;;;;;;4937507;29;20054;-75
2022/08/07 04:18:01;;;;;;;4.30;2.30;;;;;;;;;;4919718;29;20026;-75
2022/08/07 04:20:28;;;;;;;4.85;2.28;;;;;;;;;;4919752;29;20078;-75
2022/08/07 04:22:55;;;;;;;6.07;2.45;;;;;;;;;;4919654;29;20491;-75
2022/08/07 04:25:22;;;;;;;4.00;2.50;;;;;;;;;;4936591;29;20027;-75
2022/08/07 04:27:48;;;;;;;5.70;2.22;;;;;;;;;;4930831;29;20023;-75
2022/08/07 04:30:15;;;;;;;6.13;2.60;;;;;;;;;;4935430;29;20043;-75
2022/08/07 04:32:41;;;;;;;4.20;2.20;;;;;;;;;;4929915;29;20453;-76
2022/08/07 04:35:08;;;;;;;5.95;2.55;;;;;;;;;;4935313;29;20032;-75
2022/08/07 04:37:35;;;;;;;4.90;2.50;;;;;;;;;;4936554;29;20107;-75
2022/08/07 04:40:01;;;;;;;7.80;2.42;;;;;;;;;;4932330;29;20031;-75
2022/08/07 04:42:30;;;;;;;4.65;2.30;;;;;;;;;;4928004;29;20477;-75
2022/08/07 04:44:58;;;;;;;3.90;2.35;;;;;;;;;;4935254;29;20477;-75
2022/08/07 04:47:42;;;;;;;2.97;2.15;;;;;;;;;;4935126;29;20556;-76
2022/08/07 04:50:18;;;;;;;4.57;2.50;;;;;;;;;;4935080;29;20031;-75
2022/08/07 04:52:55;;;;;;;5.13;2.42;;;;;;;;;;4929826;29;20059;-73
2022/08/07 04:55:54;;;;;;;4.32;2.10;;;;;;;;;;4935069;29;20087;-74
2022/08/07 04:58:40;;;;;;;4.35;2.42;;;;;;;;;;4898735;29;20456;-74
2022/08/07 05:01:07;;;;;;;4.35;2.38;;;;;;;;;;4932743;29;20031;-74
2022/08/07 05:03:41;;;;;;;7.60;1.83;;;;;;;;;;4928452;29;20024;-75
2022/08/07 05:06:07;;;;;;;8.88;1.90;;;;;;;;;;4936811;29;20024;-75
2022/08/07 05:08:40;;;;;;;5.20;2.00;;;;;;;;;;4928361;29;20043;-75
2022/08/07 05:11:24;;;;;;;3.47;1.90;;;;;;;;;;4934927;29;20066;-75
2022/08/07 05:13:57;;;;;;;3.03;1.98;;;;;;;;;;4936062;29;20027;-73
2022/08/07 05:16:23;;;;;;;;;;;;;;;;;;4931202;29;20078;-72
2022/08/07 05:18:54;;;;;;;3.20;2.10;;;;;;;;;;4938797;29;20311;-74
2022/08/07 05:21:22;;;;;;;4.72;2.10;;;;;;;;;;4938739;29;20488;-73
2022/08/07 05:23:51;;;;;;;3.85;2.20;;;;;;;;;;4933998;29;20031;-72
2022/08/07 05:26:18;;;;;;;3.75;1.85;;;;;;;;;;4939422;29;20453;-74
2022/08/07 05:28:45;;;;;;;4.20;1.90;;;;;;;;;;4939719;29;20408;-73
2022/08/07 05:31:12;;;;;;;5.70;2.22;;;;;;;;;;4939744;29;20024;-74
2022/08/07 05:33:38;;;;;;;4.93;1.98;;;;;;;;;;4939595;29;20032;-75
2022/08/07 05:36:06;;;;;;;3.63;1.90;;;;;;;;;;4940257;29;20031;-74
2022/08/07 05:38:33;;;;;;;3.30;1.92;;;;;;;;;;4922587;29;20490;-74
2022/08/07 05:41:00;;;;;;;4.05;2.13;;;;;;;;;;4922582;29;20024;-75
2022/08/07 05:43:27;;;;;;;2.80;1.92;;;;;;;;;;4922432;29;20039;-75
2022/08/07 05:45:53;;;;;;;3.35;1.90;;;;;;;;;;4922523;29;20489;-75
2022/08/07 05:48:19;;;;;;;4.07;2.10;;;;;;;;;;4940013;29;20035;-74
2022/08/07 05:50:46;;;;;;;2.83;1.80;;;;;;;;;;4922362;29;20034;-74
2022/08/07 05:53:12;;;;;;;3.83;1.65;;;;;;;;;;4939457;29;20031;-74
2022/08/07 05:55:38;;;;;;;3.38;1.80;;;;;;;;;;4922301;29;20028;-75
2022/08/07 05:58:05;;;;;;;3.13;1.55;;;;;;;;;;4922296;29;20055;-74
2022/08/07 06:00:33;;;;;;;4.43;2.30;;;;;;;;;;4939254;29;20023;-75
2022/08/07 06:03:01;;;;;;;3.42;1.70;;;;;;;;;;4922176;29;20036;-74
2022/08/07 06:05:27;;;;;;;3.60;1.50;;;;;;;;;;4939310;29;20039;-75
2022/08/07 06:07:59;;;;;;;2.42;1.63;;;;;;;;;;4921990;29;20031;-75
2022/08/07 06:10:25;;;;;;;5.57;1.98;;;;;;;;;;4922092;29;20127;-74
2022/08/07 06:12:53;;;;;;;3.92;2.08;;;;;;;;;;4939120;29;20102;-74
2022/08/07 06:15:20;;;;;;;4.50;1.40;;;;;;;;;;4939157;29;20110;-75
2022/08/07 06:17:46;;;;;;;4.47;1.75;;;;;;;;;;4939575;29;20023;-75
2022/08/07 06:20:13;;;;;;;6.00;1.42;;;;;;;;;;4938997;29;20087;-74
2022/08/07 06:22:40;;;;;;;4.03;1.40;;;;;;;;;;4938982;29;20075;-75
2022/08/07 06:25:06;;;;;;;3.58;1.70;;;;;;;;;;4938712;29;20056;-75
2022/08/07 06:27:32;;;;;;;2.65;1.60;;;;;;;;;;4938749;29;20458;-74
2022/08/07 06:29:59;;;;;;;4.78;1.77;;;;;;;;;;4938739;29;20432;-81
2022/08/07 06:32:26;;;;;;;5.22;1.67;;;;;;;;;;4921563;29;20035;-79
2022/08/07 06:34:52;;;;;;;2.90;1.70;;;;;;;;;;4921355;29;20436;-78
2022/08/07 06:37:18;;;;;;;3.45;1.85;;;;;;;;;;4921314;29;20028;-79
2022/08/07 06:39:44;;;;;;;2.65;1.27;;;;;;;;;;4921581;29;20028;-82
2022/08/07 06:42:18;;;;;;;2.38;1.30;;;;;;;;;;4921478;29;20123;-75
2022/08/07 06:44:46;;;;;;;2.65;1.50;;;;;;;;;;4938552;29;20393;-80
2022/08/07 06:47:13;;;;;;;2.40;1.40;;;;;;;;;;4938618;29;20050;-78
2022/08/07 06:49:40;;;;;;;3.25;1.50;;;;;;;;;;4921369;29;20072;-76
2022/08/07 06:52:07;;;;;;;3.38;1.55;;;;;;;;;;4921434;29;20051;-76
2022/08/07 06:54:34;;;;;;;4.07;1.45;;;;;;;;;;4921318;29;20095;-77
2022/08/07 06:57:01;;;;;;;1.95;1.27;;;;;;;;;;4938227;29;20035;-80
2022/08/07 06:59:30;;;;;;;4.03;1.73;;;;;;;;;;4938842;29;20031;-77
2022/08/07 07:01:57;;;;;;;3.75;1.30;;;;;;;;;;4938399;29;20024;-83
2022/08/07 07:04:24;;;;;;;6.00;1.30;;;;;;;;;;4920900;29;20028;-73
2022/08/07 07:06:50;;;;;;;2.38;1.40;;;;;;;;;;4921151;29;20032;-75
2022/08/07 07:09:27;;;;;;;2.72;1.40;;;;;;;;;;4921519;29;20036;-73
2022/08/07 07:12:05;;;;;;;2.30;1.13;;;;;;;;;;4920953;29;20062;-74
2022/08/07 07:14:38;;;;;;;2.17;1.10;;;;;;;;;;4920974;29;20028;-75
2022/08/07 07:17:08;;;;;;;1.70;0.90;;;;;;;;;;4921117;29;20030;-79
2022/08/07 07:19:36;;;;;;;3.53;1.30;;;;;;;;;;4920837;29;20098;-86
2022/08/07 07:22:02;;;;;;;2.35;1.23;;;;;;;;;;4920468;29;20066;-82
2022/08/07 07:24:29;;;;;;;4.63;1.23;;;;;;;;;;4920827;29;20019;-76
2022/08/07 07:26:56;;;;;;;1.70;0.82;;;;;;;;;;4931852;29;20573;-75
2022/08/07 07:29:25;;;;;;;1.60;0.90;;;;;;;;;;4936231;29;20046;-72
2022/08/07 07:31:54;;;;;;;3.58;1.35;;;;;;;;;;4938491;29;20039;-72
2022/08/07 07:34:25;;;;;;;1.80;0.95;;;;;;;;;;4936758;29;20036;-79
2022/08/07 07:36:54;;;;;;;2.75;1.23;;;;;;;;;;4937040;29;20502;-84
2022/08/07 07:39:22;;;;;;;1.65;0.80;;;;;;;;;;4935506;29;20035;-82
2022/08/07 07:41:50;;;;;;;1.75;0.90;;;;;;;;;;4936216;29;20028;-83
2022/08/07 07:44:17;;;;;;;2.83;1.10;;;;;;;;;;4936608;29;20058;-81
2022/08/07 07:46:44;;;;;;;2.30;1.23;;;;;;;;;;4937380;29;20034;-75
2022/08/07 07:49:12;;;;;;;2.53;0.98;;;;;;;;;;4936075;29;20128;-78
2022/08/07 07:51:38;;;;;;;1.60;1.00;;;;;;;;;;4935956;29;20031;-81
2022/08/07 07:54:06;;;;;;;1.63;1.00;;;;;;;;;;4937088;29;20027;-78
2022/08/07 07:56:36;;;;;;;4.10;1.10;;;;;;;;;;4936037;29;20103;-81
2022/08/07 07:59:03;;;;;;;1.90;1.08;;;;;;;;;;4935596;29;20034;-79
2022/08/07 08:01:31;;;;;;;2.10;1.05;;;;;;;;;;4936457;29;20051;-77
2022/08/07 08:03:57;;;;;;;3.38;1.33;;;;;;;;;;4936051;29;20541;-87
2022/08/07 08:06:28;;;;;;;1.70;1.10;;;;;;;;;;4937166;29;20031;-90
